sensor_id;sensor_type;location;lat;lon;timestamp;P1;durP1;ratioP1;P2;durP2;ratioP2
48849;SDS011;63210;53.370;6.770;2023-07-13T00:00:12;12.60;;;3.40;;
48849;SDS011;63210;53.370;6.770;2023-07-13T00:02:41;16.42;;;3.20;;
48849;SDS011;63210;53.370;6.770;2023-07-13T00:05:07;11.70;;;3.47;;
48849;SDS011;63210;53.370;6.770;2023-07-13T00:07:32;12.85;;;3.83;;
48849;SDS011;63210;53.370;6.770;2023-07-13T00:09:57;16.27;;;4.07;;
48849;SDS011;63210;53.370;6.770;2023-07-13T00:12:34;11.52;;;3.72;;
48849;SDS011;63210;53.370;6.770;2023-07-13T00:15:01;11.95;;;3.10;;
48849;SDS011;63210;53.370;6.770;2023-07-13T00:17:28;11.52;;;3.40;;
48849;SDS011;63210;53.370;6.770;2023-07-13T00:19:54;13.10;;;3.78;;
48849;SDS011;63210;53.370;6.770;2023-07-13T00:22:21;11.25;;;3.97;;
48849;SDS011;63210;53.370;6.770;2023-07-13T00:24:46;11.38;;;3.83;;
48849;SDS011;63210;53.370;6.770;2023-07-13T00:27:12;12.75;;;3.22;;
48849;SDS011;63210;53.370;6.770;2023-07-13T00:29:37;17.40;;;3.78;;
48849;SDS011;63210;53.370;6.770;2023-07-13T00:32:03;12.50;;;3.33;;
48849;SDS011;63210;53.370;6.770;2023-07-13T00:34:29;11.57;;;2.90;;
48849;SDS011;63210;53.370;6.770;2023-07-13T00:36:55;12.15;;;3.70;;
48849;SDS011;63210;53.370;6.770;2023-07-13T00:39:20;13.65;;;3.47;;
48849;SDS011;63210;53.370;6.770;2023-07-13T00:41:46;12.80;;;3.03;;
48849;SDS011;63210;53.370;6.770;2023-07-13T00:44:15;10.85;;;3.00;;
48849;SDS011;63210;53.370;6.770;2023-07-13T00:46:40;11.68;;;3.15;;
48849;SDS011;63210;53.370;6.770;2023-07-13T00:49:06;11.93;;;2.67;;
48849;SDS011;63210;53.370;6.770;2023-07-13T00:51:34;16.45;;;3.78;;
48849;SDS011;63210;53.370;6.770;2023-07-13T00:54:03;12.70;;;4.20;;
48849;SDS011;63210;53.370;6.770;2023-07-13T00:56:29;15.02;;;3.28;;
48849;SDS011;63210;53.370;6.770;2023-07-13T00:58:55;10.77;;;3.10;;
48849;SDS011;63210;53.370;6.770;2023-07-13T01:01:21;9.35;;;3.00;;
48849;SDS011;63210;53.370;6.770;2023-07-13T01:03:47;19.90;;;3.88;;
48849;SDS011;63210;53.370;6.770;2023-07-13T01:06:12;18.60;;;4.13;;
48849;SDS011;63210;53.370;6.770;2023-07-13T01:08:38;14.57;;;4.32;;
48849;SDS011;63210;53.370;6.770;2023-07-13T01:11:05;17.08;;;3.10;;
48849;SDS011;63210;53.370;6.770;2023-07-13T01:13:30;12.05;;;3.47;;
48849;SDS011;63210;53.370;6.770;2023-07-13T01:15:56;14.73;;;3.80;;
48849;SDS011;63210;53.370;6.770;2023-07-13T01:18:24;11.75;;;3.30;;
48849;SDS011;63210;53.370;6.770;2023-07-13T01:20:51;10.05;;;3.38;;
48849;SDS011;63210;53.370;6.770;2023-07-13T01:23:16;14.18;;;3.60;;
48849;SDS011;63210;53.370;6.770;2023-07-13T01:25:41;11.85;;;3.42;;
48849;SDS011;63210;53.370;6.770;2023-07-13T01:28:07;13.57;;;3.65;;
48849;SDS011;63210;53.370;6.770;2023-07-13T01:30:34;14.98;;;3.28;;
48849;SDS011;63210;53.370;6.770;2023-07-13T01:33:00;11.48;;;3.70;;
48849;SDS011;63210;53.370;6.770;2023-07-13T01:35:25;12.68;;;3.70;;
48849;SDS011;63210;53.370;6.770;2023-07-13T01:37:52;9.27;;;3.80;;
48849;SDS011;63210;53.370;6.770;2023-07-13T01:40:17;13.48;;;3.30;;
48849;SDS011;63210;53.370;6.770;2023-07-13T01:42:43;16.73;;;3.60;;
48849;SDS011;63210;53.370;6.770;2023-07-13T01:45:08;11.50;;;3.45;;
48849;SDS011;63210;53.370;6.770;2023-07-13T01:47:34;14.73;;;3.35;;
48849;SDS011;63210;53.370;6.770;2023-07-13T01:49:59;9.10;;;3.30;;
48849;SDS011;63210;53.370;6.770;2023-07-13T01:52:24;15.85;;;3.58;;
48849;SDS011;63210;53.370;6.770;2023-07-13T01:54:50;12.52;;;3.45;;
48849;SDS011;63210;53.370;6.770;2023-07-13T01:57:15;12.90;;;3.85;;
48849;SDS011;63210;53.370;6.770;2023-07-13T01:59:40;13.30;;;3.40;;
48849;SDS011;63210;53.370;6.770;2023-07-13T02:02:06;14.68;;;4.40;;
48849;SDS011;63210;53.370;6.770;2023-07-13T02:04:31;12.75;;;3.72;;
48849;SDS011;63210;53.370;6.770;2023-07-13T02:06:57;14.75;;;3.80;;
48849;SDS011;63210;53.370;6.770;2023-07-13T02:09:22;13.68;;;3.88;;
48849;SDS011;63210;53.370;6.770;2023-07-13T02:11:47;10.85;;;3.17;;
48849;SDS011;63210;53.370;6.770;2023-07-13T02:14:13;14.77;;;3.47;;
48849;SDS011;63210;53.370;6.770;2023-07-13T02:16:40;14.93;;;3.35;;
48849;SDS011;63210;53.370;6.770;2023-07-13T02:19:06;10.20;;;3.45;;
48849;SDS011;63210;53.370;6.770;2023-07-13T02:21:31;18.50;;;4.13;;
48849;SDS011;63210;53.370;6.770;2023-07-13T02:23:56;18.63;;;3.72;;
48849;SDS011;63210;53.370;6.770;2023-07-13T02:26:22;11.90;;;3.20;;
48849;SDS011;63210;53.370;6.770;2023-07-13T02:28:48;14.50;;;3.60;;
48849;SDS011;63210;53.370;6.770;2023-07-13T02:31:14;11.77;;;2.97;;
48849;SDS011;63210;53.370;6.770;2023-07-13T02:33:39;8.65;;;3.17;;
48849;SDS011;63210;53.370;6.770;2023-07-13T02:36:05;10.65;;;3.20;;
48849;SDS011;63210;53.370;6.770;2023-07-13T02:38:31;12.80;;;3.28;;
48849;SDS011;63210;53.370;6.770;2023-07-13T02:40:59;10.82;;;2.60;;
48849;SDS011;63210;53.370;6.770;2023-07-13T02:43:24;11.82;;;3.03;;
48849;SDS011;63210;53.370;6.770;2023-07-13T02:45:49;8.35;;;2.65;;
48849;SDS011;63210;53.370;6.770;2023-07-13T02:48:14;7.28;;;2.53;;
48849;SDS011;63210;53.370;6.770;2023-07-13T02:50:40;5.55;;;2.30;;
48849;SDS011;63210;53.370;6.770;2023-07-13T02:53:05;7.95;;;2.47;;
48849;SDS011;63210;53.370;6.770;2023-07-13T02:55:31;9.70;;;3.08;;
48849;SDS011;63210;53.370;6.770;2023-07-13T02:57:56;7.22;;;2.42;;
48849;SDS011;63210;53.370;6.770;2023-07-13T03:00:22;8.73;;;2.30;;
48849;SDS011;63210;53.370;6.770;2023-07-13T03:02:47;14.02;;;2.80;;
48849;SDS011;63210;53.370;6.770;2023-07-13T03:05:12;5.80;;;2.60;;
48849;SDS011;63210;53.370;6.770;2023-07-13T03:07:39;6.43;;;2.35;;
48849;SDS011;63210;53.370;6.770;2023-07-13T03:10:04;7.18;;;2.58;;
48849;SDS011;63210;53.370;6.770;2023-07-13T03:12:31;8.63;;;2.20;;
48849;SDS011;63210;53.370;6.770;2023-07-13T03:14:56;9.30;;;2.42;;
48849;SDS011;63210;53.370;6.770;2023-07-13T03:17:22;9.60;;;2.58;;
48849;SDS011;63210;53.370;6.770;2023-07-13T03:19:47;12.02;;;2.33;;
48849;SDS011;63210;53.370;6.770;2023-07-13T03:22:15;5.57;;;2.42;;
48849;SDS011;63210;53.370;6.770;2023-07-13T03:24:40;8.38;;;2.67;;
48849;SDS011;63210;53.370;6.770;2023-07-13T03:27:06;6.53;;;2.30;;
48849;SDS011;63210;53.370;6.770;2023-07-13T03:29:31;6.28;;;2.50;;
48849;SDS011;63210;53.370;6.770;2023-07-13T03:31:56;7.05;;;2.58;;
48849;SDS011;63210;53.370;6.770;2023-07-13T03:34:22;10.30;;;3.65;;
48849;SDS011;63210;53.370;6.770;2023-07-13T03:36:47;10.57;;;2.65;;
48849;SDS011;63210;53.370;6.770;2023-07-13T03:39:12;9.18;;;3.15;;
48849;SDS011;63210;53.370;6.770;2023-07-13T03:41:38;7.97;;;2.85;;
48849;SDS011;63210;53.370;6.770;2023-07-13T03:44:03;13.73;;;3.65;;
48849;SDS011;63210;53.370;6.770;2023-07-13T03:46:29;11.20;;;3.25;;
48849;SDS011;63210;53.370;6.770;2023-07-13T03:48:54;8.48;;;3.35;;
48849;SDS011;63210;53.370;6.770;2023-07-13T03:51:19;14.27;;;3.65;;
48849;SDS011;63210;53.370;6.770;2023-07-13T03:53:45;17.40;;;4.07;;
48849;SDS011;63210;53.370;6.770;2023-07-13T03:56:11;12.70;;;3.67;;
48849;SDS011;63210;53.370;6.770;2023-07-13T03:58:39;13.13;;;3.63;;
48849;SDS011;63210;53.370;6.770;2023-07-13T04:01:06;14.63;;;3.55;;
48849;SDS011;63210;53.370;6.770;2023-07-13T04:03:32;15.55;;;4.75;;
48849;SDS011;63210;53.370;6.770;2023-07-13T04:06:05;12.35;;;3.90;;
48849;SDS011;63210;53.370;6.770;2023-07-13T04:08:32;19.23;;;3.95;;
48849;SDS011;63210;53.370;6.770;2023-07-13T04:10:58;18.48;;;4.10;;
48849;SDS011;63210;53.370;6.770;2023-07-13T04:13:23;12.63;;;3.97;;
48849;SDS011;63210;53.370;6.770;2023-07-13T04:15:49;16.67;;;4.25;;
48849;SDS011;63210;53.370;6.770;2023-07-13T04:18:14;11.82;;;4.05;;
48849;SDS011;63210;53.370;6.770;2023-07-13T04:20:39;17.75;;;4.50;;
48849;SDS011;63210;53.370;6.770;2023-07-13T04:23:05;16.38;;;4.03;;
48849;SDS011;63210;53.370;6.770;2023-07-13T04:25:30;14.23;;;4.00;;
48849;SDS011;63210;53.370;6.770;2023-07-13T04:27:55;15.85;;;4.07;;
48849;SDS011;63210;53.370;6.770;2023-07-13T04:30:21;13.02;;;4.10;;
48849;SDS011;63210;53.370;6.770;2023-07-13T04:32:46;16.10;;;4.40;;
48849;SDS011;63210;53.370;6.770;2023-07-13T04:35:12;17.65;;;3.65;;
48849;SDS011;63210;53.370;6.770;2023-07-13T04:37:39;19.98;;;4.28;;
48849;SDS011;63210;53.370;6.770;2023-07-13T04:40:04;19.35;;;3.88;;
48849;SDS011;63210;53.370;6.770;2023-07-13T04:42:30;17.20;;;4.60;;
48849;SDS011;63210;53.370;6.770;2023-07-13T04:44:55;17.58;;;4.15;;
48849;SDS011;63210;53.370;6.770;2023-07-13T04:47:21;14.75;;;4.00;;
48849;SDS011;63210;53.370;6.770;2023-07-13T04:49:46;16.92;;;4.03;;
48849;SDS011;63210;53.370;6.770;2023-07-13T04:52:11;13.45;;;3.65;;
48849;SDS011;63210;53.370;6.770;2023-07-13T04:54:37;19.52;;;4.18;;
48849;SDS011;63210;53.370;6.770;2023-07-13T04:57:03;19.08;;;4.68;;
48849;SDS011;63210;53.370;6.770;2023-07-13T04:59:29;15.00;;;4.03;;
48849;SDS011;63210;53.370;6.770;2023-07-13T05:01:54;24.38;;;4.55;;
48849;SDS011;63210;53.370;6.770;2023-07-13T05:04:20;15.20;;;4.47;;
48849;SDS011;63210;53.370;6.770;2023-07-13T05:06:45;13.65;;;4.05;;
48849;SDS011;63210;53.370;6.770;2023-07-13T05:09:11;12.07;;;3.65;;
48849;SDS011;63210;53.370;6.770;2023-07-13T05:11:37;20.83;;;4.70;;
48849;SDS011;63210;53.370;6.770;2023-07-13T05:14:03;17.60;;;4.85;;
48849;SDS011;63210;53.370;6.770;2023-07-13T05:16:28;16.13;;;4.30;;
48849;SDS011;63210;53.370;6.770;2023-07-13T05:18:53;18.50;;;4.38;;
48849;SDS011;63210;53.370;6.770;2023-07-13T05:21:19;16.17;;;4.35;;
48849;SDS011;63210;53.370;6.770;2023-07-13T05:23:44;13.73;;;3.80;;
48849;SDS011;63210;53.370;6.770;2023-07-13T05:26:09;16.02;;;4.65;;
48849;SDS011;63210;53.370;6.770;2023-07-13T05:28:35;14.25;;;4.30;;
48849;SDS011;63210;53.370;6.770;2023-07-13T05:31:01;14.60;;;3.88;;
48849;SDS011;63210;53.370;6.770;2023-07-13T05:33:26;12.73;;;3.85;;
48849;SDS011;63210;53.370;6.770;2023-07-13T05:35:52;15.25;;;4.03;;
48849;SDS011;63210;53.370;6.770;2023-07-13T05:38:17;15.43;;;4.13;;
48849;SDS011;63210;53.370;6.770;2023-07-13T05:40:44;17.15;;;4.88;;
48849;SDS011;63210;53.370;6.770;2023-07-13T05:43:10;14.77;;;4.20;;
48849;SDS011;63210;53.370;6.770;2023-07-13T05:45:38;19.02;;;4.30;;
48849;SDS011;63210;53.370;6.770;2023-07-13T05:48:03;12.05;;;3.50;;
48849;SDS011;63210;53.370;6.770;2023-07-13T05:50:29;15.00;;;4.03;;
48849;SDS011;63210;53.370;6.770;2023-07-13T05:52:54;17.67;;;4.43;;
48849;SDS011;63210;53.370;6.770;2023-07-13T05:55:20;10.65;;;3.97;;
48849;SDS011;63210;53.370;6.770;2023-07-13T05:57:45;14.07;;;3.88;;
48849;SDS011;63210;53.370;6.770;2023-07-13T06:00:10;19.98;;;3.88;;
48849;SDS011;63210;53.370;6.770;2023-07-13T06:02:36;10.85;;;3.10;;
48849;SDS011;63210;53.370;6.770;2023-07-13T06:05:01;11.48;;;3.28;;
48849;SDS011;63210;53.370;6.770;2023-07-13T06:07:26;11.00;;;3.13;;
48849;SDS011;63210;53.370;6.770;2023-07-13T06:09:52;14.88;;;3.58;;
48849;SDS011;63210;53.370;6.770;2023-07-13T06:12:17;16.15;;;3.63;;
48849;SDS011;63210;53.370;6.770;2023-07-13T06:14:42;10.55;;;3.30;;
48849;SDS011;63210;53.370;6.770;2023-07-13T06:17:08;15.40;;;3.85;;
48849;SDS011;63210;53.370;6.770;2023-07-13T06:19:34;12.70;;;3.95;;
48849;SDS011;63210;53.370;6.770;2023-07-13T06:21:59;10.25;;;3.78;;
48849;SDS011;63210;53.370;6.770;2023-07-13T06:24:25;14.05;;;3.83;;
48849;SDS011;63210;53.370;6.770;2023-07-13T06:26:50;8.77;;;3.03;;
48849;SDS011;63210;53.370;6.770;2023-07-13T06:29:16;12.63;;;3.47;;
48849;SDS011;63210;53.370;6.770;2023-07-13T06:31:41;9.57;;;3.10;;
48849;SDS011;63210;53.370;6.770;2023-07-13T06:34:07;10.52;;;3.13;;
48849;SDS011;63210;53.370;6.770;2023-07-13T06:36:32;12.32;;;2.83;;
48849;SDS011;63210;53.370;6.770;2023-07-13T06:38:57;12.63;;;3.60;;
48849;SDS011;63210;53.370;6.770;2023-07-13T06:41:23;6.93;;;2.22;;
48849;SDS011;63210;53.370;6.770;2023-07-13T06:43:51;9.20;;;2.35;;
48849;SDS011;63210;53.370;6.770;2023-07-13T06:46:16;9.32;;;3.00;;
48849;SDS011;63210;53.370;6.770;2023-07-13T06:48:41;10.70;;;2.83;;
48849;SDS011;63210;53.370;6.770;2023-07-13T06:51:07;7.10;;;2.50;;
48849;SDS011;63210;53.370;6.770;2023-07-13T06:53:33;8.15;;;2.47;;
48849;SDS011;63210;53.370;6.770;2023-07-13T06:55:58;19.73;;;2.75;;
48849;SDS011;63210;53.370;6.770;2023-07-13T06:58:23;9.80;;;2.40;;
48849;SDS011;63210;53.370;6.770;2023-07-13T07:00:50;8.18;;;2.55;;
48849;SDS011;63210;53.370;6.770;2023-07-13T07:03:16;7.85;;;3.40;;
48849;SDS011;63210;53.370;6.770;2023-07-13T07:05:41;7.20;;;2.30;;
48849;SDS011;63210;53.370;6.770;2023-07-13T07:08:07;7.78;;;2.30;;
48849;SDS011;63210;53.370;6.770;2023-07-13T07:10:33;6.82;;;2.20;;
48849;SDS011;63210;53.370;6.770;2023-07-13T07:12:58;10.15;;;2.60;;
48849;SDS011;63210;53.370;6.770;2023-07-13T07:15:23;9.10;;;2.17;;
48849;SDS011;63210;53.370;6.770;2023-07-13T07:17:49;11.18;;;3.08;;
48849;SDS011;63210;53.370;6.770;2023-07-13T07:20:14;8.68;;;2.40;;
48849;SDS011;63210;53.370;6.770;2023-07-13T07:22:39;8.05;;;2.20;;
48849;SDS011;63210;53.370;6.770;2023-07-13T07:25:05;6.68;;;1.85;;
48849;SDS011;63210;53.370;6.770;2023-07-13T07:27:30;6.28;;;2.22;;
48849;SDS011;63210;53.370;6.770;2023-07-13T07:29:55;4.90;;;1.80;;
48849;SDS011;63210;53.370;6.770;2023-07-13T07:32:22;6.68;;;2.00;;
48849;SDS011;63210;53.370;6.770;2023-07-13T07:34:48;11.63;;;2.17;;
48849;SDS011;63210;53.370;6.770;2023-07-13T07:37:13;7.25;;;2.30;;
48849;SDS011;63210;53.370;6.770;2023-07-13T07:39:39;6.03;;;1.95;;
48849;SDS011;63210;53.370;6.770;2023-07-13T07:42:04;5.97;;;1.92;;
48849;SDS011;63210;53.370;6.770;2023-07-13T07:44:31;7.85;;;2.72;;
48849;SDS011;63210;53.370;6.770;2023-07-13T07:46:56;7.57;;;1.90;;
48849;SDS011;63210;53.370;6.770;2023-07-13T07:49:21;5.82;;;1.77;;
48849;SDS011;63210;53.370;6.770;2023-07-13T07:51:47;10.57;;;1.95;;
48849;SDS011;63210;53.370;6.770;2023-07-13T07:54:12;7.47;;;1.90;;
48849;SDS011;63210;53.370;6.770;2023-07-13T07:56:38;4.25;;;1.63;;
48849;SDS011;63210;53.370;6.770;2023-07-13T07:59:03;2.92;;;1.45;;
48849;SDS011;63210;53.370;6.770;2023-07-13T08:01:29;7.80;;;1.60;;
48849;SDS011;63210;53.370;6.770;2023-07-13T08:03:54;6.63;;;1.85;;
48849;SDS011;63210;53.370;6.770;2023-07-13T08:06:19;6.38;;;2.00;;
48849;SDS011;63210;53.370;6.770;2023-07-13T08:08:45;11.27;;;2.03;;
48849;SDS011;63210;53.370;6.770;2023-07-13T08:11:10;7.13;;;1.65;;
48849;SDS011;63210;53.370;6.770;2023-07-13T08:13:36;3.95;;;1.55;;
48849;SDS011;63210;53.370;6.770;2023-07-13T08:16:03;6.25;;;1.77;;
48849;SDS011;63210;53.370;6.770;2023-07-13T08:18:29;6.85;;;2.00;;
48849;SDS011;63210;53.370;6.770;2023-07-13T08:20:54;6.88;;;2.03;;
48849;SDS011;63210;53.370;6.770;2023-07-13T08:23:23;5.90;;;1.77;;
48849;SDS011;63210;53.370;6.770;2023-07-13T08:25:52;4.43;;;1.90;;
48849;SDS011;63210;53.370;6.770;2023-07-13T08:28:19;6.97;;;2.72;;
48849;SDS011;63210;53.370;6.770;2023-07-13T08:30:44;4.80;;;1.98;;
48849;SDS011;63210;53.370;6.770;2023-07-13T08:33:10;7.75;;;2.00;;
48849;SDS011;63210;53.370;6.770;2023-07-13T08:35:35;5.57;;;1.98;;
48849;SDS011;63210;53.370;6.770;2023-07-13T08:38:01;4.13;;;1.70;;
48849;SDS011;63210;53.370;6.770;2023-07-13T08:40:27;4.03;;;1.60;;
48849;SDS011;63210;53.370;6.770;2023-07-13T08:43:01;4.57;;;1.70;;
48849;SDS011;63210;53.370;6.770;2023-07-13T08:45:36;4.75;;;1.70;;
48849;SDS011;63210;53.370;6.770;2023-07-13T08:48:05;5.63;;;1.85;;
48849;SDS011;63210;53.370;6.770;2023-07-13T08:50:52;6.72;;;1.98;;
48849;SDS011;63210;53.370;6.770;2023-07-13T08:53:21;4.82;;;1.80;;
48849;SDS011;63210;53.370;6.770;2023-07-13T08:55:47;6.85;;;2.85;;
48849;SDS011;63210;53.370;6.770;2023-07-13T08:58:14;5.13;;;1.80;;
48849;SDS011;63210;53.370;6.770;2023-07-13T09:03:59;6.35;;;1.88;;
48849;SDS011;63210;53.370;6.770;2023-07-13T09:06:21;6.25;;;2.63;;
48849;SDS011;63210;53.370;6.770;2023-07-13T09:08:56;4.65;;;1.88;;
48849;SDS011;63210;53.370;6.770;2023-07-13T09:14:00;4.05;;;1.70;;
48849;SDS011;63210;53.370;6.770;2023-07-13T09:16:27;4.95;;;1.95;;
48849;SDS011;63210;53.370;6.770;2023-07-13T09:18:53;4.05;;;1.90;;
48849;SDS011;63210;53.370;6.770;2023-07-13T09:21:29;4.75;;;2.00;;
48849;SDS011;63210;53.370;6.770;2023-07-13T09:23:56;6.03;;;1.83;;
48849;SDS011;63210;53.370;6.770;2023-07-13T09:26:24;4.15;;;1.70;;
48849;SDS011;63210;53.370;6.770;2023-07-13T09:28:52;5.75;;;2.08;;
48849;SDS011;63210;53.370;6.770;2023-07-13T09:31:26;5.10;;;1.90;;
48849;SDS011;63210;53.370;6.770;2023-07-13T09:33:54;3.63;;;1.73;;
48849;SDS011;63210;53.370;6.770;2023-07-13T09:36:27;6.82;;;2.15;;
48849;SDS011;63210;53.370;6.770;2023-07-13T09:46:34;15.98;;;4.85;;
48849;SDS011;63210;53.370;6.770;2023-07-13T09:49:00;31.40;;;7.60;;
48849;SDS011;63210;53.370;6.770;2023-07-13T09:51:26;14.27;;;3.42;;
48849;SDS011;63210;53.370;6.770;2023-07-13T09:53:52;8.95;;;3.13;;
48849;SDS011;63210;53.370;6.770;2023-07-13T09:56:19;6.50;;;2.60;;
48849;SDS011;63210;53.370;6.770;2023-07-13T09:58:44;10.73;;;2.53;;
48849;SDS011;63210;53.370;6.770;2023-07-13T10:01:09;4.85;;;2.10;;
48849;SDS011;63210;53.370;6.770;2023-07-13T10:03:35;5.60;;;2.33;;
48849;SDS011;63210;53.370;6.770;2023-07-13T10:06:12;5.15;;;2.22;;
48849;SDS011;63210;53.370;6.770;2023-07-13T10:08:37;5.97;;;2.47;;
48849;SDS011;63210;53.370;6.770;2023-07-13T10:11:11;4.53;;;2.50;;
48849;SDS011;63210;53.370;6.770;2023-07-13T10:13:37;6.65;;;3.38;;
48849;SDS011;63210;53.370;6.770;2023-07-13T10:16:06;6.60;;;3.40;;
48849;SDS011;63210;53.370;6.770;2023-07-13T10:18:34;8.77;;;3.45;;
48849;SDS011;63210;53.370;6.770;2023-07-13T10:21:21;4.28;;;2.20;;
48849;SDS011;63210;53.370;6.770;2023-07-13T10:23:47;5.20;;;2.10;;
48849;SDS011;63210;53.370;6.770;2023-07-13T10:26:18;3.67;;;1.80;;
48849;SDS011;63210;53.370;6.770;2023-07-13T10:28:46;4.30;;;2.38;;
48849;SDS011;63210;53.370;6.770;2023-07-13T10:31:14;3.22;;;1.50;;
48849;SDS011;63210;53.370;6.770;2023-07-13T10:33:40;5.20;;;1.63;;
48849;SDS011;63210;53.370;6.770;2023-07-13T10:36:17;3.08;;;1.52;;
48849;SDS011;63210;53.370;6.770;2023-07-13T10:38:45;4.80;;;1.42;;
48849;SDS011;63210;53.370;6.770;2023-07-13T10:41:12;4.88;;;1.73;;
48849;SDS011;63210;53.370;6.770;2023-07-13T10:43:53;3.80;;;1.30;;
48849;SDS011;63210;53.370;6.770;2023-07-13T10:46:20;3.65;;;1.65;;
48849;SDS011;63210;53.370;6.770;2023-07-13T10:48:48;2.75;;;1.30;;
48849;SDS011;63210;53.370;6.770;2023-07-13T10:51:18;4.63;;;1.38;;
48849;SDS011;63210;53.370;6.770;2023-07-13T10:53:46;1.40;;;1.00;;
48849;SDS011;63210;53.370;6.770;2023-07-13T10:58:41;5.95;;;1.77;;
48849;SDS011;63210;53.370;6.770;2023-07-13T11:01:15;4.15;;;1.10;;
48849;SDS011;63210;53.370;6.770;2023-07-13T11:08:35;2.75;;;1.08;;
48849;SDS011;63210;53.370;6.770;2023-07-13T11:11:02;3.10;;;1.10;;
48849;SDS011;63210;53.370;6.770;2023-07-13T11:13:38;6.40;;;1.50;;
48849;SDS011;63210;53.370;6.770;2023-07-13T11:16:14;2.72;;;1.42;;
48849;SDS011;63210;53.370;6.770;2023-07-13T11:21:25;2.10;;;1.20;;
48849;SDS011;63210;53.370;6.770;2023-07-13T11:23:53;2.33;;;1.10;;
48849;SDS011;63210;53.370;6.770;2023-07-13T11:26:37;2.83;;;1.42;;
48849;SDS011;63210;53.370;6.770;2023-07-13T11:31:55;3.58;;;1.20;;
48849;SDS011;63210;53.370;6.770;2023-07-13T11:34:40;3.22;;;1.35;;
48849;SDS011;63210;53.370;6.770;2023-07-13T11:37:10;3.47;;;1.40;;
48849;SDS011;63210;53.370;6.770;2023-07-13T11:39:38;3.17;;;1.23;;
48849;SDS011;63210;53.370;6.770;2023-07-13T11:42:08;3.60;;;1.40;;
48849;SDS011;63210;53.370;6.770;2023-07-13T11:44:41;4.93;;;1.30;;
48849;SDS011;63210;53.370;6.770;2023-07-13T11:47:11;4.18;;;1.33;;
48849;SDS011;63210;53.370;6.770;2023-07-13T11:49:48;4.20;;;1.30;;
48849;SDS011;63210;53.370;6.770;2023-07-13T11:52:15;2.83;;;1.30;;
48849;SDS011;63210;53.370;6.770;2023-07-13T11:54:50;3.83;;;1.35;;
48849;SDS011;63210;53.370;6.770;2023-07-13T11:57:24;8.25;;;1.60;;
48849;SDS011;63210;53.370;6.770;2023-07-13T11:59:51;4.78;;;1.80;;
48849;SDS011;63210;53.370;6.770;2023-07-13T12:02:28;4.40;;;1.52;;
48849;SDS011;63210;53.370;6.770;2023-07-13T12:04:53;3.15;;;1.90;;
48849;SDS011;63210;53.370;6.770;2023-07-13T12:07:19;5.82;;;1.42;;
48849;SDS011;63210;53.370;6.770;2023-07-13T12:09:44;6.90;;;1.95;;
48849;SDS011;63210;53.370;6.770;2023-07-13T12:12:11;4.57;;;1.65;;
48849;SDS011;63210;53.370;6.770;2023-07-13T12:14:37;4.22;;;1.50;;
48849;SDS011;63210;53.370;6.770;2023-07-13T12:17:03;3.60;;;1.48;;
48849;SDS011;63210;53.370;6.770;2023-07-13T12:21:58;5.63;;;1.67;;
48849;SDS011;63210;53.370;6.770;2023-07-13T12:24:24;4.25;;;1.42;;
48849;SDS011;63210;53.370;6.770;2023-07-13T12:27:00;5.60;;;1.60;;
48849;SDS011;63210;53.370;6.770;2023-07-13T12:29:27;4.32;;;1.60;;
48849;SDS011;63210;53.370;6.770;2023-07-13T12:31:52;2.45;;;1.30;;
48849;SDS011;63210;53.370;6.770;2023-07-13T12:34:19;3.50;;;1.30;;
48849;SDS011;63210;53.370;6.770;2023-07-13T12:37:08;4.05;;;1.45;;
48849;SDS011;63210;53.370;6.770;2023-07-13T12:39:34;10.07;;;2.10;;
48849;SDS011;63210;53.370;6.770;2023-07-13T12:44:46;3.58;;;1.60;;
48849;SDS011;63210;53.370;6.770;2023-07-13T12:47:12;4.75;;;1.80;;
48849;SDS011;63210;53.370;6.770;2023-07-13T12:49:40;4.50;;;2.20;;
48849;SDS011;63210;53.370;6.770;2023-07-13T12:52:10;4.10;;;1.55;;
48849;SDS011;63210;53.370;6.770;2023-07-13T12:54:38;3.38;;;1.58;;
48849;SDS011;63210;53.370;6.770;2023-07-13T12:57:04;4.00;;;2.20;;
48849;SDS011;63210;53.370;6.770;2023-07-13T12:59:31;7.63;;;2.63;;
48849;SDS011;63210;53.370;6.770;2023-07-13T13:01:58;6.32;;;2.60;;
48849;SDS011;63210;53.370;6.770;2023-07-13T13:04:24;7.20;;;2.33;;
48849;SDS011;63210;53.370;6.770;2023-07-13T13:07:00;12.55;;;2.28;;
48849;SDS011;63210;53.370;6.770;2023-07-13T13:09:26;7.05;;;2.40;;
48849;SDS011;63210;53.370;6.770;2023-07-13T13:11:51;8.25;;;2.20;;
48849;SDS011;63210;53.370;6.770;2023-07-13T13:14:17;8.02;;;2.13;;
48849;SDS011;63210;53.370;6.770;2023-07-13T13:16:45;5.47;;;1.98;;
48849;SDS011;63210;53.370;6.770;2023-07-13T13:19:13;6.85;;;2.03;;
48849;SDS011;63210;53.370;6.770;2023-07-13T13:21:39;4.30;;;2.13;;
48849;SDS011;63210;53.370;6.770;2023-07-13T13:24:10;6.22;;;2.40;;
48849;SDS011;63210;53.370;6.770;2023-07-13T13:26:35;5.65;;;2.35;;
48849;SDS011;63210;53.370;6.770;2023-07-13T13:29:01;6.55;;;2.13;;
48849;SDS011;63210;53.370;6.770;2023-07-13T13:31:26;5.60;;;1.70;;
48849;SDS011;63210;53.370;6.770;2023-07-13T13:33:51;7.72;;;1.90;;
48849;SDS011;63210;53.370;6.770;2023-07-13T13:36:18;9.57;;;2.10;;
48849;SDS011;63210;53.370;6.770;2023-07-13T13:38:44;8.10;;;2.30;;
48849;SDS011;63210;53.370;6.770;2023-07-13T13:41:10;7.85;;;2.30;;
48849;SDS011;63210;53.370;6.770;2023-07-13T13:43:36;9.63;;;2.45;;
48849;SDS011;63210;53.370;6.770;2023-07-13T13:46:01;6.90;;;2.13;;
48849;SDS011;63210;53.370;6.770;2023-07-13T13:48:29;5.72;;;2.10;;
48849;SDS011;63210;53.370;6.770;2023-07-13T13:50:56;10.23;;;2.47;;
48849;SDS011;63210;53.370;6.770;2023-07-13T13:53:22;10.63;;;2.55;;
48849;SDS011;63210;53.370;6.770;2023-07-13T13:55:48;11.98;;;2.15;;
48849;SDS011;63210;53.370;6.770;2023-07-13T13:58:14;6.30;;;1.90;;
48849;SDS011;63210;53.370;6.770;2023-07-13T14:00:39;10.02;;;2.15;;
48849;SDS011;63210;53.370;6.770;2023-07-13T14:03:05;10.82;;;2.20;;
48849;SDS011;63210;53.370;6.770;2023-07-13T14:05:33;7.05;;;2.40;;
48849;SDS011;63210;53.370;6.770;2023-07-13T14:07:58;4.90;;;1.77;;
48849;SDS011;63210;53.370;6.770;2023-07-13T14:10:24;7.88;;;2.85;;
48849;SDS011;63210;53.370;6.770;2023-07-13T14:12:51;4.43;;;2.22;;
48849;SDS011;63210;53.370;6.770;2023-07-13T14:15:27;4.38;;;1.80;;
48849;SDS011;63210;53.370;6.770;2023-07-13T14:17:53;9.05;;;2.30;;
48849;SDS011;63210;53.370;6.770;2023-07-13T14:20:19;7.00;;;2.20;;
48849;SDS011;63210;53.370;6.770;2023-07-13T14:22:45;7.93;;;2.20;;
48849;SDS011;63210;53.370;6.770;2023-07-13T14:25:14;6.65;;;2.25;;
48849;SDS011;63210;53.370;6.770;2023-07-13T14:27:40;8.35;;;2.42;;
48849;SDS011;63210;53.370;6.770;2023-07-13T14:30:16;9.48;;;2.35;;
48849;SDS011;63210;53.370;6.770;2023-07-13T14:32:42;8.77;;;2.10;;
48849;SDS011;63210;53.370;6.770;2023-07-13T14:35:10;9.18;;;2.40;;
48849;SDS011;63210;53.370;6.770;2023-07-13T14:37:35;8.00;;;2.10;;
48849;SDS011;63210;53.370;6.770;2023-07-13T14:40:01;12.75;;;2.15;;
48849;SDS011;63210;53.370;6.770;2023-07-13T14:42:26;7.18;;;2.00;;
48849;SDS011;63210;53.370;6.770;2023-07-13T14:44:51;8.02;;;2.97;;
48849;SDS011;63210;53.370;6.770;2023-07-13T14:47:17;6.97;;;1.90;;
48849;SDS011;63210;53.370;6.770;2023-07-13T14:49:43;6.78;;;2.17;;
48849;SDS011;63210;53.370;6.770;2023-07-13T14:52:10;6.50;;;1.85;;
48849;SDS011;63210;53.370;6.770;2023-07-13T14:54:36;8.68;;;2.30;;
48849;SDS011;63210;53.370;6.770;2023-07-13T14:57:08;7.65;;;2.33;;
48849;SDS011;63210;53.370;6.770;2023-07-13T14:59:33;5.95;;;2.10;;
48849;SDS011;63210;53.370;6.770;2023-07-13T15:01:59;13.20;;;2.40;;
48849;SDS011;63210;53.370;6.770;2023-07-13T15:04:25;6.95;;;2.03;;
48849;SDS011;63210;53.370;6.770;2023-07-13T15:06:57;6.65;;;2.00;;
48849;SDS011;63210;53.370;6.770;2023-07-13T15:09:23;7.65;;;2.03;;